Wetterdaten: Woche 25.10.10 - 31.10.10 (KW43)
Datum Zeit Temp. A. Feuchte A. Luftdruck Regen Wind Richtung Taupunkt Windchill Windben
25.10.2010 00:00 5,4 C 87 % 1012,2 hPa 0,0 l/m 0,0 km/h O-NO 3,4 C 5,4 C 0,0 km/h
25.10.2010 01:00 5,1 C 87 % 1012,3 hPa 0,0 l/m 0,0 km/h O-SO 3,1 C 5,1 C 0,0 km/h
25.10.2010 02:00 4,7 C 88 % 1012,7 hPa 0,0 l/m 0,0 km/h NW 2,9 C 4,7 C 0,0 km/h
25.10.2010 03:00 4,4 C 88 % 1013,1 hPa 0,0 l/m 0,0 km/h W-NW 2,6 C 4,4 C 0,0 km/h
25.10.2010 04:00 4,1 C 88 % 1013,0 hPa 0,0 l/m 0,0 km/h NW 2,3 C 4,1 C 0,0 km/h
25.10.2010 05:00 3,8 C 87 % 1013,4 hPa 0,0 l/m 0,0 km/h NW 1,8 C 3,8 C 0,0 km/h
25.10.2010 06:00 3,4 C 87 % 1014,1 hPa 0,0 l/m 0,0 km/h W-NW 1,4 C 3,4 C 0,0 km/h
25.10.2010 07:00 2,5 C 88 % 1014,9 hPa 0,0 l/m 0,0 km/h N-NO 0,7 C 2,5 C 0,0 km/h
25.10.2010 08:00 3,6 C 87 % 1015,6 hPa 0,0 l/m 0,6 km/h N 1,6 C 3,6 C 0,4 km/h
25.10.2010 09:00 4,4 C 88 % 1016,6 hPa 0,0 l/m 0,0 km/h N-NO 2,6 C 4,4 C 0,0 km/h
25.10.2010 10:00 5,8 C 89 % 1017,0 hPa 0,4 l/m 0,0 km/h NW 4,1 C 5,8 C 0,0 km/h
25.10.2010 11:00 7,4 C 84 % 1017,6 hPa 0,0 l/m 6,5 km/h N 4,9 C 7,3 C 3,6 km/h
25.10.2010 12:00 8,1 C 81 % 1018,5 hPa 0,0 l/m 0,0 km/h N 5,0 C 8,1 C 0,0 km/h
25.10.2010 13:00 8,4 C 74 % 1018,6 hPa 0,0 l/m 0,0 km/h NO 4,0 C 8,4 C 0,0 km/h
25.10.2010 14:00 8,4 C 75 % 1018,7 hPa 0,0 l/m 0,0 km/h N 4,2 C 8,4 C 0,0 km/h
25.10.2010 15:00 10,6 C 61 % 1018,9 hPa 0,0 l/m 4,5 km/h NO 3,4 C 10,6 C 2,5 km/h
25.10.2010 16:00 8,8 C 62 % 1019,4 hPa 0,0 l/m 0,0 km/h N-NO 1,9 C 8,8 C 0,0 km/h
25.10.2010 17:00 7,5 C 68 % 1019,9 hPa 0,0 l/m 0,0 km/h N-NO 2,0 C 7,5 C 0,0 km/h
25.10.2010 18:00 6,4 C 74 % 1020,6 hPa 0,0 l/m 1,3 km/h N 2,1 C 6,4 C 0,7 km/h
25.10.2010 19:00 5,1 C 80 % 1021,3 hPa 0,0 l/m 0,0 km/h N-NO 1,9 C 5,1 C 0,0 km/h
25.10.2010 20:00 4,4 C 83 % 1021,9 hPa 0,0 l/m 0,0 km/h N-NO 1,8 C 4,4 C 0,0 km/h
25.10.2010 21:00 3,0 C 85 % 1022,5 hPa 0,0 l/m 0,0 km/h NO 0,7 C 3,0 C 0,0 km/h
25.10.2010 22:00 1,2 C 87 % 1023,2 hPa 0,0 l/m 0,0 km/h O-SO -0,7 C 1,2 C 0,0 km/h
25.10.2010 23:00 0,9 C 88 % 1023,7 hPa 0,0 l/m 0,0 km/h O-SO -0,9 C 0,9 C 0,0 km/h
26.10.2010 00:00 -0,8 C 88 % 1023,8 hPa 0,0 l/m 0,0 km/h O -2,5 C -0,8 C 0,0 km/h
26.10.2010 01:00 -1,2 C 88 % 1024,2 hPa 0,0 l/m 0,0 km/h NO -2,9 C -1,2 C 0,0 km/h
26.10.2010 02:00 -1,6 C 88 % 1024,3 hPa 0,0 l/m 0,0 km/h O-SO -3,3 C -1,6 C 0,0 km/h
26.10.2010 03:00 -1,9 C 89 % 1024,4 hPa 0,0 l/m 0,0 km/h NO -3,5 C -1,9 C 0,0 km/h
26.10.2010 04:00 -1,9 C 89 % 1024,6 hPa 0,0 l/m 0,0 km/h W-SW -3,5 C -1,9 C 0,0 km/h
26.10.2010 05:00 -1,9 C 89 % 1024,9 hPa 0,0 l/m 0,0 km/h O-NO -3,5 C -1,9 C 0,0 km/h
26.10.2010 06:00 -1,9 C 89 % 1025,0 hPa 0,0 l/m 0,0 km/h O-NO -3,5 C -1,9 C 0,0 km/h
26.10.2010 07:00 -2,8 C 88 % 1025,8 hPa 0,0 l/m 0,0 km/h SW -4,5 C -2,8 C 0,0 km/h
26.10.2010 08:00 -3,1 C 89 % 1026,2 hPa 0,0 l/m 0,0 km/h N-NO -4,6 C -3,1 C 0,0 km/h
26.10.2010 09:00 1,2 C 88 % 1026,8 hPa 0,0 l/m 0,0 km/h O-SO -0,6 C 1,2 C 0,0 km/h
26.10.2010 10:00 9,9 C 80 % 1027,2 hPa 0,0 l/m 0,0 km/h W 6,6 C 9,9 C 0,0 km/h
26.10.2010 11:00 12,1 C 65 % 1027,1 hPa 0,0 l/m 0,0 km/h W 5,7 C 12,1 C 0,0 km/h
26.10.2010 12:00 12,4 C 64 % 1026,8 hPa 0,0 l/m 0,0 km/h NW 5,8 C 12,4 C 0,0 km/h
26.10.2010 13:00 13,3 C 56 % 1026,5 hPa 0,0 l/m 1,9 km/h N 4,7 C 13,3 C 1,1 km/h
26.10.2010 14:00 14,4 C 45 % 1025,7 hPa 0,0 l/m 2,6 km/h N-NO 2,6 C 14,4 C 1,4 km/h
26.10.2010 15:00 16,2 C 42 % 1025,8 hPa 0,0 l/m 0,0 km/h N-NO 3,3 C 16,2 C 0,0 km/h
26.10.2010 16:00 16,9 C 36 % 1025,5 hPa 0,0 l/m 0,0 km/h NO 1,7 C 16,9 C 0,0 km/h
26.10.2010 17:00 14,3 C 39 % 1025,6 hPa 0,0 l/m 0,0 km/h N-NO 0,5 C 14,3 C 0,0 km/h
26.10.2010 18:00 6,8 C 58 % 1025,9 hPa 0,0 l/m 0,0 km/h SO -0,9 C 6,8 C 0,0 km/h
26.10.2010 19:00 3,6 C 72 % 1026,2 hPa 0,0 l/m 0,0 km/h NO -1,0 C 3,6 C 0,0 km/h
26.10.2010 20:00 3,8 C 77 % 1026,4 hPa 0,0 l/m 0,0 km/h O-NO 0,1 C 3,8 C 0,0 km/h
26.10.2010 21:00 2,8 C 80 % 1026,7 hPa 0,0 l/m 0,0 km/h S -0,3 C 2,8 C 0,0 km/h
26.10.2010 22:00 3,3 C 81 % 1026,1 hPa 0,0 l/m 7,1 km/h O-SO 0,4 C 2,6 C 4,0 km/h
26.10.2010 23:00 0,8 C 84 % 1026,3 hPa 0,0 l/m 0,0 km/h N-NO -1,6 C 0,8 C 0,0 km/h
27.10.2010 00:00 0,2 C 87 % 1026,1 hPa 0,0 l/m 0,0 km/h N-NO -1,7 C 0,2 C 0,0 km/h
27.10.2010 01:00 0,1 C 87 % 1025,7 hPa 0,0 l/m 0,0 km/h O-SO -1,8 C 0,1 C 0,0 km/h
27.10.2010 02:00 -0,5 C 88 % 1026,0 hPa 0,0 l/m 0,0 km/h NO -2,2 C -0,5 C 0,0 km/h
27.10.2010 03:00 -0,3 C 88 % 1025,9 hPa 0,0 l/m 0,0 km/h O-SO -2,0 C -0,3 C 0,0 km/h
27.10.2010 04:00 -0,4 C 88 % 1025,7 hPa 0,0 l/m 0,0 km/h O-NO -2,1 C -0,4 C 0,0 km/h
27.10.2010 05:00 -0,2 C 88 % 1025,6 hPa 0,0 l/m 0,0 km/h O-NO -1,9 C -0,2 C 0,0 km/h
27.10.2010 06:00 -0,4 C 88 % 1025,4 hPa 0,0 l/m 0,0 km/h O-NO -2,1 C -0,4 C 0,0 km/h
27.10.2010 07:00 -0,5 C 88 % 1025,2 hPa 0,0 l/m 0,0 km/h O-NO -2,2 C -0,5 C 0,0 km/h
27.10.2010 08:00 0,5 C 88 % 1025,6 hPa 0,0 l/m 0,0 km/h SO -1,3 C 0,5 C 0,0 km/h
27.10.2010 09:00 3,4 C 88 % 1025,4 hPa 0,0 l/m 0,0 km/h O-NO 1,6 C 3,4 C 0,0 km/h
27.10.2010 10:00 7,1 C 79 % 1025,4 hPa 0,0 l/m 0,0 km/h SO 3,7 C 7,1 C 0,0 km/h
27.10.2010 11:00 12,2 C 66 % 1025,3 hPa 0,0 l/m 0,0 km/h W-SW 6,0 C 12,2 C 0,0 km/h
27.10.2010 12:00 14,1 C 52 % 1024,7 hPa 0,0 l/m 0,0 km/h S-SO 4,4 C 14,1 C 0,0 km/h
27.10.2010 13:00 16,8 C 44 % 1024,1 hPa 0,0 l/m 0,0 km/h NO 4,5 C 16,8 C 0,0 km/h
27.10.2010 14:00 15,2 C 46 % 1023,4 hPa 0,0 l/m 0,0 km/h N-NO 3,7 C 15,2 C 0,0 km/h
27.10.2010 15:00 17,4 C 41 % 1023,3 hPa 0,0 l/m 9,1 km/h S 4,0 C 16,1 C 5,0 km/h
27.10.2010 16:00 13,9 C 47 % 1022,9 hPa 0,0 l/m 0,0 km/h S 2,8 C 13,9 C 0,0 km/h
27.10.2010 17:00 13,0 C 58 % 1022,3 hPa 0,0 l/m 0,0 km/h S 4,9 C 13,0 C 0,0 km/h
27.10.2010 18:00 8,3 C 67 % 1022,0 hPa 0,0 l/m 0,0 km/h NO 2,5 C 8,3 C 0,0 km/h
27.10.2010 19:00 5,8 C 76 % 1022,5 hPa 0,0 l/m 0,0 km/h NO 1,9 C 5,8 C 0,0 km/h
27.10.2010 20:00 4,7 C 81 % 1022,6 hPa 0,0 l/m 0,0 km/h NO 1,7 C 4,7 C 0,0 km/h
27.10.2010 21:00 5,5 C 82 % 1022,8 hPa 0,0 l/m 0,0 km/h O-SO 2,7 C 5,5 C 0,0 km/h
27.10.2010 22:00 5,6 C 84 % 1022,7 hPa 0,0 l/m 0,0 km/h SO 3,1 C 5,6 C 0,0 km/h
27.10.2010 23:00 6,4 C 84 % 1022,4 hPa 0,0 l/m 1,3 km/h O-SO 3,9 C 6,4 C 0,7 km/h
28.10.2010 00:00 6,4 C 84 % 1022,2 hPa 0,0 l/m 0,0 km/h O-SO 3,9 C 6,4 C 0,0 km/h
28.10.2010 01:00 6,3 C 84 % 1021,5 hPa 0,0 l/m 0,0 km/h O-SO 3,8 C 6,3 C 0,0 km/h
28.10.2010 02:00 6,4 C 84 % 1021,5 hPa 0,0 l/m 0,0 km/h O-SO 3,9 C 6,4 C 0,0 km/h
28.10.2010 03:00 5,3 C 86 % 1021,5 hPa 0,0 l/m 3,2 km/h O-SO 3,2 C 5,3 C 1,8 km/h
28.10.2010 04:00 4,6 C 87 % 1021,2 hPa 0,0 l/m 0,0 km/h O-SO 2,6 C 4,6 C 0,0 km/h
28.10.2010 05:00 4,2 C 87 % 1021,7 hPa 0,0 l/m 0,0 km/h O-NO 2,2 C 4,2 C 0,0 km/h
28.10.2010 06:00 3,3 C 87 % 1021,2 hPa 0,0 l/m 0,0 km/h NO 1,3 C 3,3 C 0,0 km/h
28.10.2010 07:00 2,1 C 88 % 1021,4 hPa 0,0 l/m 0,0 km/h NO 0,3 C 2,1 C 0,0 km/h
28.10.2010 08:00 1,8 C 88 % 1021,7 hPa 0,0 l/m 0,0 km/h NO 0,0 C 1,8 C 0,0 km/h
28.10.2010 09:00 3,5 C 88 % 1021,8 hPa 0,0 l/m 0,0 km/h O-NO 1,7 C 3,5 C 0,0 km/h
28.10.2010 10:00 13,2 C 67 % 1022,0 hPa 0,0 l/m 0,0 km/h NW 7,2 C 13,2 C 0,0 km/h
28.10.2010 11:00 16,6 C 51 % 1022,3 hPa 0,0 l/m 1,3 km/h S-SW 6,4 C 16,6 C 0,7 km/h
28.10.2010 12:00 18,5 C 46 % 1022,2 hPa 0,0 l/m 1,3 km/h S-SW 6,7 C 18,5 C 0,7 km/h
28.10.2010 13:00 13,3 C 52 % 1021,8 hPa 0,0 l/m 1,3 km/h W-SW 3,7 C 13,3 C 0,7 km/h
28.10.2010 14:00 14,8 C 49 % 1021,5 hPa 0,0 l/m 0,0 km/h W-SW 4,2 C 14,8 C 0,0 km/h
28.10.2010 15:00 19,5 C 41 % 1020,8 hPa 0,0 l/m 0,0 km/h S 5,9 C 19,5 C 0,0 km/h
28.10.2010 16:00 20,4 C 37 % 1020,2 hPa 0,0 l/m 0,0 km/h N-NO 5,2 C 20,4 C 0,0 km/h
28.10.2010 17:00 16,5 C 43 % 1020,4 hPa 0,0 l/m 0,0 km/h NO 3,9 C 16,5 C 0,0 km/h
28.10.2010 18:00 9,1 C 64 % 1020,2 hPa 0,0 l/m 0,0 km/h SO 2,7 C 9,1 C 0,0 km/h
28.10.2010 19:00 6,9 C 73 % 1020,5 hPa 0,0 l/m 0,0 km/h NO 2,4 C 6,9 C 0,0 km/h
28.10.2010 20:00 8,1 C 74 % 1020,2 hPa 0,0 l/m 0,0 km/h NO 3,8 C 8,1 C 0,0 km/h
28.10.2010 21:00 8,2 C 74 % 1020,4 hPa 0,0 l/m 0,0 km/h S-SO 3,8 C 8,2 C 0,0 km/h
28.10.2010 22:00 7,9 C 75 % 1020,4 hPa 0,0 l/m 0,0 km/h S-SO 3,7 C 7,9 C 0,0 km/h
28.10.2010 23:00 5,6 C 80 % 1019,9 hPa 0,0 l/m 0,0 km/h O-NO 2,4 C 5,6 C 0,0 km/h
29.10.2010 00:00 4,5 C 83 % 1019,6 hPa 0,0 l/m 0,0 km/h O-NO 1,9 C 4,5 C 0,0 km/h
29.10.2010 01:00 3,8 C 83 % 1018,9 hPa 0,0 l/m 0,0 km/h O-NO 1,2 C 3,8 C 0,0 km/h
29.10.2010 02:00 2,7 C 84 % 1018,3 hPa 0,0 l/m 0,0 km/h O-SO 0,3 C 2,7 C 0,0 km/h
29.10.2010 03:00 1,6 C 85 % 1017,9 hPa 0,0 l/m 0,0 km/h NO -0,6 C 1,6 C 0,0 km/h
29.10.2010 04:00 1,3 C 86 % 1016,9 hPa 0,0 l/m 0,0 km/h NO -0,8 C 1,3 C 0,0 km/h
29.10.2010 05:00 0,6 C 87 % 1016,2 hPa 0,0 l/m 0,0 km/h NO -1,3 C 0,6 C 0,0 km/h
29.10.2010 06:00 0,4 C 87 % 1015,7 hPa 0,0 l/m 0,0 km/h O-NO -1,5 C 0,4 C 0,0 km/h
29.10.2010 07:00 -0,1 C 87 % 1015,1 hPa 0,0 l/m 0,0 km/h NO -2,0 C -0,1 C 0,0 km/h
29.10.2010 08:00 0,4 C 87 % 1014,8 hPa 0,0 l/m 0,0 km/h NO -1,5 C 0,4 C 0,0 km/h
29.10.2010 09:00 5,9 C 87 % 1014,5 hPa 0,0 l/m 0,0 km/h O 3,9 C 5,9 C 0,0 km/h
29.10.2010 10:00 13,9 C 64 % 1013,7 hPa 0,0 l/m 0,0 km/h W-NW 7,2 C 13,9 C 0,0 km/h
29.10.2010 11:00 17,3 C 51 % 1013,2 hPa 0,0 l/m 0,0 km/h N 7,1 C 17,3 C 0,0 km/h
29.10.2010 12:00 18,3 C 47 % 1012,4 hPa 0,0 l/m 0,0 km/h S-SW 6,8 C 18,3 C 0,0 km/h
29.10.2010 13:00 18,1 C 48 % 1011,0 hPa 0,0 l/m 3,2 km/h SO 6,9 C 18,1 C 1,8 km/h
29.10.2010 14:00 19,2 C 47 % 1009,6 hPa 0,0 l/m 1,9 km/h W-NW 7,6 C 19,2 C 1,1 km/h
29.10.2010 15:00 21,2 C 44 % 1008,5 hPa 0,0 l/m 0,0 km/h W 8,5 C 21,2 C 0,0 km/h
29.10.2010 16:00 21,9 C 42 % 1008,0 hPa 0,0 l/m 0,0 km/h W 8,4 C 21,9 C 0,0 km/h
29.10.2010 17:00 17,0 C 54 % 1007,5 hPa 0,0 l/m 0,0 km/h O-NO 7,6 C 17,0 C 0,0 km/h
29.10.2010 18:00 9,5 C 74 % 1007,0 hPa 0,0 l/m 0,0 km/h NO 5,1 C 9,5 C 0,0 km/h
29.10.2010 19:00 7,3 C 83 % 1007,3 hPa 0,0 l/m 0,0 km/h SO 4,6 C 7,3 C 0,0 km/h
29.10.2010 20:00 6,9 C 85 % 1006,7 hPa 0,0 l/m 0,0 km/h N 4,6 C 6,9 C 0,0 km/h
29.10.2010 21:00 6,2 C 86 % 1006,0 hPa 0,0 l/m 0,0 km/h O 4,0 C 6,2 C 0,0 km/h
29.10.2010 22:00 5,3 C 86 % 1005,7 hPa 0,0 l/m 0,0 km/h SW 3,2 C 5,3 C 0,0 km/h
29.10.2010 23:00 4,8 C 86 % 1005,8 hPa 0,0 l/m 0,0 km/h NO 2,7 C 4,8 C 0,0 km/h
30.10.2010 00:00 5,1 C 86 % 1005,3 hPa 0,0 l/m 0,0 km/h NO 3,0 C 5,1 C 0,0 km/h
30.10.2010 01:00 4,9 C 86 % 1005,2 hPa 0,0 l/m 0,0 km/h O-NO 2,8 C 4,9 C 0,0 km/h
30.10.2010 02:00 4,3 C 86 % 1005,2 hPa 0,0 l/m 0,0 km/h NO 2,2 C 4,3 C 0,0 km/h
30.10.2010 03:00 4,9 C 86 % 1004,9 hPa 0,0 l/m 0,0 km/h NO 2,8 C 4,9 C 0,0 km/h
30.10.2010 04:00 5,0 C 86 % 1005,0 hPa 0,0 l/m 0,0 km/h NO 2,9 C 5,0 C 0,0 km/h
30.10.2010 05:00 5,5 C 86 % 1005,2 hPa 0,0 l/m 0,0 km/h NO 3,3 C 5,5 C 0,0 km/h
30.10.2010 06:00 5,1 C 86 % 1005,4 hPa 0,0 l/m 0,0 km/h SO 3,0 C 5,1 C 0,0 km/h
30.10.2010 07:00 5,3 C 86 % 1005,8 hPa 0,0 l/m 0,0 km/h SO 3,2 C 5,3 C 0,0 km/h
30.10.2010 08:00 6,1 C 86 % 1005,8 hPa 0,0 l/m 2,6 km/h O-SO 3,9 C 6,1 C 1,4 km/h
30.10.2010 09:00 7,2 C 87 % 1005,8 hPa 0,0 l/m 5,2 km/h NO 5,2 C 7,2 C 2,9 km/h
30.10.2010 10:00 9,1 C 85 % 1005,5 hPa 0,0 l/m 0,0 km/h SO 6,7 C 9,1 C 0,0 km/h
30.10.2010 11:00 11,3 C 81 % 1006,4 hPa 0,0 l/m 4,5 km/h W-SW 8,2 C 11,3 C 2,5 km/h
30.10.2010 12:00 17,9 C 53 % 1006,9 hPa 0,0 l/m 23,3 km/h W-SW 8,2 C 12,8 C 13,0 km/h
30.10.2010 13:00 14,9 C 59 % 1007,2 hPa 0,0 l/m 14,9 km/h S-SO 7,0 C 11,1 C 8,3 km/h
30.10.2010 14:00 14,9 C 60 % 1007,0 hPa 0,0 l/m 5,2 km/h S-SW 7,2 C 14,9 C 2,9 km/h
30.10.2010 15:00 14,9 C 60 % 1006,4 hPa 0,0 l/m 5,2 km/h SW 7,2 C 14,9 C 2,9 km/h
30.10.2010 16:00 15,1 C 60 % 1005,8 hPa 0,0 l/m 17,5 km/h SO 7,4 C 10,5 C 9,7 km/h
30.10.2010 17:00 13,3 C 66 % 1005,6 hPa 0,0 l/m 1,3 km/h S 7,1 C 13,3 C 0,7 km/h
30.10.2010 18:00 12,2 C 68 % 1005,4 hPa 0,0 l/m 0,0 km/h NO 6,5 C 12,2 C 0,0 km/h
30.10.2010 19:00 10,9 C 75 % 1005,0 hPa 0,0 l/m 0,0 km/h O-NO 6,6 C 10,9 C 0,0 km/h
30.10.2010 20:00 9,3 C 83 % 1004,1 hPa 0,0 l/m 0,0 km/h SO 6,6 C 9,3 C 0,0 km/h
30.10.2010 21:00 8,6 C 84 % 1003,0 hPa 0,0 l/m 0,0 km/h NO 6,1 C 8,6 C 0,0 km/h
30.10.2010 22:00 8,5 C 85 % 1002,3 hPa 0,0 l/m 0,0 km/h O-NO 6,1 C 8,5 C 0,0 km/h
30.10.2010 23:00 8,1 C 86 % 1001,2 hPa 0,0 l/m 0,0 km/h NO 5,9 C 8,1 C 0,0 km/h
31.10.2010 00:00 7,4 C 86 % 1000,9 hPa 0,0 l/m 0,0 km/h N-NO 5,2 C 7,4 C 0,0 km/h
31.10.2010 01:00 7,8 C 86 % 999,9 hPa 0,0 l/m 0,0 km/h W-SW 5,6 C 7,8 C 0,0 km/h
31.10.2010 02:00 7,3 C 86 % 999,6 hPa 0,0 l/m 0,0 km/h S 5,1 C 7,3 C 0,0 km/h
31.10.2010 03:00 6,8 C 86 % 999,9 hPa 0,0 l/m 0,0 km/h N-NW 4,6 C 6,8 C 0,0 km/h
31.10.2010 04:00 7,2 C 86 % 1000,0 hPa 0,0 l/m 0,0 km/h SW 5,0 C 7,2 C 0,0 km/h
31.10.2010 05:00 6,7 C 86 % 1000,4 hPa 0,0 l/m 0,0 km/h NO 4,5 C 6,7 C 0,0 km/h
31.10.2010 06:00 7,1 C 86 % 1000,3 hPa 0,0 l/m 0,0 km/h O 4,9 C 7,1 C 0,0 km/h
31.10.2010 07:00 6,9 C 86 % 1001,3 hPa 0,0 l/m 0,0 km/h O-SO 4,7 C 6,9 C 0,0 km/h
31.10.2010 08:00 8,1 C 85 % 1001,4 hPa 0,0 l/m 0,0 km/h SO 5,7 C 8,1 C 0,0 km/h
31.10.2010 09:00 13,2 C 81 % 1001,3 hPa 0,0 l/m 0,0 km/h SO 10,0 C 13,2 C 0,0 km/h
31.10.2010 10:00 15,5 C 77 % 1001,0 hPa 0,0 l/m 6,5 km/h W 11,5 C 15,5 C 3,6 km/h
31.10.2010 11:00 19,6 C 59 % 1000,7 hPa 0,0 l/m 0,0 km/h W-NW 11,4 C 19,6 C 0,0 km/h
31.10.2010 12:00 19,0 C 55 % 999,9 hPa 0,0 l/m 0,0 km/h NW 9,8 C 19,0 C 0,0 km/h
31.10.2010 13:00 19,1 C 56 % 998,6 hPa 0,0 l/m 0,0 km/h W-NW 10,1 C 19,1 C 0,0 km/h
31.10.2010 14:00 16,5 C 64 % 998,1 hPa 0,0 l/m 0,0 km/h W 9,7 C 16,5 C 0,0 km/h
31.10.2010 15:00 14,9 C 72 % 998,6 hPa 0,0 l/m 0,0 km/h S 9,9 C 14,9 C 0,0 km/h
31.10.2010 16:00 12,8 C 78 % 998,0 hPa 0,0 l/m 0,0 km/h S 9,1 C 12,8 C 0,0 km/h
31.10.2010 17:00 11,3 C 83 % 998,0 hPa 0,0 l/m 0,0 km/h N-NW 8,5 C 11,3 C 0,0 km/h
31.10.2010 18:00 10,6 C 84 % 998,4 hPa 0,0 l/m 0,0 km/h W 8,0 C 10,6 C 0,0 km/h
31.10.2010 19:00 8,6 C 86 % 998,3 hPa 0,0 l/m 0,0 km/h S 6,4 C 8,6 C 0,0 km/h
31.10.2010 20:00 8,7 C 86 % 998,6 hPa 0,0 l/m 0,0 km/h SO 6,5 C 8,7 C 0,0 km/h
31.10.2010 21:00 8,9 C 86 % 998,8 hPa 0,0 l/m 0,0 km/h SO 6,7 C 8,9 C 0,0 km/h
31.10.2010 22:00 8,6 C 86 % 999,5 hPa 0,0 l/m 0,0 km/h W 6,4 C 8,6 C 0,0 km/h
31.10.2010 23:00 8,2 C 86 % 1000,0 hPa 0,0 l/m 0,0 km/h W 6,0 C 8,2 C 0,0 km/h
Min-Datum _ 26.10.10 26.10.10 31.10.10 - 25.10.10 - 26.10.10 26.10.10 25.10.10
_ Min-Zeit 08:30 16:30 16:30 - 00:30 - 08:30 08:30 00:30
Minimum _ -3,1 C 36 % 998,0 hPa - 0,0 km/h - -4,6 C -3,1 C 0,0 km/h
Max-Datum _ 29.10.10 25.10.10 26.10.10 25.10.10 30.10.10 - 31.10.10 29.10.10 30.10.10
_ Max-Zeit 16:30 10:30 10:30 10:30 12:30 - 10:30 16:30 12:30
Maximum _ 21,9 C 89 % 1027,2 hPa 0,4 l/m 23,3 km/h
W-SW
- 11,5 C 21,9 C 13,0 km/h
W-SW
Durchschnitt _ 7,8 C 76 % 1015,1 hPa #0,4 l/m 0,8 km/h NO 3,3 C 7,7 C 0,4 km/h